• Join FlightAware (Why Join?)
  • Login
  • US Flag 
06:57AM EST


 

Airport Tracker/Info


-or-


 

Live Flight TrackerFlight Track Log ✈ EMD21 ✈ 18-Jun-2013 ✈ KMLC - KGGG

Flight Track Log - Related Links

Times and Time Zones

All times are in EDT time to prevent confusion due to time zone crossing. See the EMD21 flight status page for this flight to view local times or setup timezone preferences in your user account.

Time Position Orientation Groundspeed Altitude Reporting Facility
EDT Latitude Longitude Course Direction KTS MPH feet Rate Location/Type
09:28AM 34.7931 -95.7903 161° South 226 260 3,500  Level Fort Worth Center
09:29AM 34.7425 -95.7633 156° South 213 245 4,400 900 Climbing Fort Worth Center
09:30AM 34.6922 -95.7417 160° South 201 231 5,300 720 Climbing Fort Worth Center
09:31AM 34.6397 -95.7200 161° South 196 226 5,900 600 Climbing Fort Worth Center
09:32AM 34.5894 -95.6958 158° South 196 226 6,600 600 Climbing Fort Worth Center
09:33AM 34.5648 -95.6435 161° South  Level Estimated
09:33AM 34.5389 -95.6689 156° South 191 220 7,100  Level Fort Worth Center
09:34AM 34.4844 -95.6500 164° South 191 220 7,700 600 Climbing Fort Worth Center
09:35AM 34.4319 -95.6258 159° South 197 227 8,400 600 Climbing Fort Worth Center
09:36AM 34.3794 -95.5992 157° South 197 227 9,000 600 Climbing Fort Worth Center
09:37AM 34.3269 -95.5753 159° South 202 232 9,700 600 Climbing Fort Worth Center
09:38AM 34.2681 -95.5514 161° South 214 246 10,200 600 Climbing Fort Worth Center
09:39AM 34.2156 -95.5247 157° South 214 246 11,000 600 Climbing Fort Worth Center
09:40AM 34.1589 -95.5008 161° South 214 246 11,500 600 Climbing Fort Worth Center
09:41AM 34.1042 -95.4744 158° South 209 241 12,300 780 Climbing Fort Worth Center
09:42AM 34.0517 -95.4481 157° South 209 241 13,100 360 Climbing Fort Worth Center
09:43AM 33.9886 -95.4244 163° South 216 249 13,100  Level Fort Worth Center
09:44AM 33.9278 -95.3983 160° South 222 255 13,100 -60 Level Fort Worth Center
09:45AM 33.8644 -95.3672 158° South 241 277 13,000  Descending Fort Worth Center
09:46AM 33.7994 -95.3389 160° South 248 285 13,100  Climbing Fort Worth Center
09:47AM 33.7342 -95.3106 160° South 253 291 13,100  Level Fort Worth Center
09:48AM 33.6711 -95.2819 159° South 248 285 13,100  Level Fort Worth Center
09:49AM 33.6081 -95.2536 159° South 248 285 13,100 -60 Level Fort Worth Center
09:50AM 33.5428 -95.2253 160° South 248 285 13,000  Descending Fort Worth Center
09:51AM 33.4839 -95.1969 158° South 248 285 13,100  Climbing Fort Worth Center
09:52AM 33.4144 -95.1686 161° South 248 285 13,100  Level Fort Worth Center
09:53AM 33.3536 -95.1406 159° South 248 285 13,100 -300 Level Fort Worth Center
09:54AM 33.2861 -95.1122 161° South 248 285 12,500 -720 Descending Fort Worth Center
09:55AM 33.2167 -95.0819 160° South 254 292 11,700 -780 Descending Fort Worth Center
09:56AM 33.1514 -95.0489 157° South 254 292 11,000 -360 Descending Fort Worth Center
09:57AM 33.0861 -95.0158 157° South 254 292 11,000  Level Fort Worth Center
09:58AM 33.0231 -94.9903 161° South 249 287 11,000  Level Fort Worth Center
09:59AM 32.9600 -94.9647 161° South 249 287 11,000  Level Fort Worth Center
10:00AM 32.8989 -94.9367 159° South 244 281 11,100 -420 Climbing Fort Worth Center
10:01AM 32.8378 -94.9089 159° South 244 281 10,200 -1,440 Descending Fort Worth Center
10:02AM 32.7767 -94.8808 159° South 238 274 8,300 -2,040 Descending Fort Worth Center
10:03AM 32.7156 -94.8578 162° South 233 268 6,200 -2,100 Descending Fort Worth Center
10:04AM 32.6586 -94.8297 157° South 233 268 4,100 -1,740 Descending Fort Worth Center
10:05AM 32.5997 -94.8044 160° South 233 268 2,800 -720 Descending Fort Worth Center
10:06AM 32.5511 -94.7811 158° South 214 246 2,700 -300 Descending Fort Worth Center
10:07AM 32.5028 -94.7606 160° South 197 227 2,300 -360 Descending Fort Worth Center
10:08AM 32.4586 -94.7397 158° South 185 213 2,000 -360 Descending Fort Worth Center
10:09AM 32.4119 -94.7114 153° Southeast 172 198 1,600 -420 Descending Fort Worth Center